sensor_id;sensor_type;location;lat;lon;timestamp;pressure;altitude;pressure_sealevel;temperature;humidity
56330;BME280;42236;48.058;10.632;2023-04-07T00:01:16;94766.31;;;5.42;57.69
56330;BME280;42236;48.058;10.632;2023-04-07T00:04:02;94771.19;;;5.40;58.01
56330;BME280;42236;48.058;10.632;2023-04-07T00:06:48;94770.06;;;5.41;58.15
56330;BME280;42236;48.058;10.632;2023-04-07T00:09:33;94762.78;;;5.33;59.25
56330;BME280;42236;48.058;10.632;2023-04-07T00:12:19;94761.44;;;5.22;60.96
56330;BME280;42236;48.058;10.632;2023-04-07T00:15:06;94758.09;;;5.16;60.85
56330;BME280;42236;48.058;10.632;2023-04-07T00:17:52;94752.59;;;5.12;61.19
56330;BME280;42236;48.058;10.632;2023-04-07T00:20:37;94748.81;;;5.13;61.08
56330;BME280;42236;48.058;10.632;2023-04-07T00:23:23;94753.00;;;5.06;62.06
56330;BME280;42236;48.058;10.632;2023-04-07T00:26:09;94745.38;;;4.99;62.37
56330;BME280;42236;48.058;10.632;2023-04-07T00:28:54;94747.19;;;4.90;63.88
56330;BME280;42236;48.058;10.632;2023-04-07T00:31:40;94735.81;;;4.84;63.57
56330;BME280;42236;48.058;10.632;2023-04-07T00:34:26;94733.75;;;4.81;63.68
56330;BME280;42236;48.058;10.632;2023-04-07T00:37:11;94726.31;;;4.78;64.50
56330;BME280;42236;48.058;10.632;2023-04-07T00:39:57;94720.41;;;4.81;63.65
56330;BME280;42236;48.058;10.632;2023-04-07T00:42:43;94715.84;;;4.82;63.75
56330;BME280;42236;48.058;10.632;2023-04-07T00:45:29;94733.44;;;4.83;63.74
56330;BME280;42236;48.058;10.632;2023-04-07T00:48:15;94715.06;;;4.81;64.09
56330;BME280;42236;48.058;10.632;2023-04-07T00:51:01;94719.00;;;4.84;64.13
56330;BME280;42236;48.058;10.632;2023-04-07T00:53:48;94712.25;;;4.86;64.26
56330;BME280;42236;48.058;10.632;2023-04-07T00:56:33;94718.81;;;4.80;65.19
56330;BME280;42236;48.058;10.632;2023-04-07T00:59:20;94710.41;;;4.73;65.53
56330;BME280;42236;48.058;10.632;2023-04-07T01:02:12;94713.28;;;4.77;66.89
56330;BME280;42236;48.058;10.632;2023-04-07T01:05:20;94705.16;;;4.82;66.93
56330;BME280;42236;48.058;10.632;2023-04-07T01:11:23;94701.38;;;4.83;68.81
56330;BME280;42236;48.058;10.632;2023-04-07T01:14:10;94699.31;;;4.80;66.41
56330;BME280;42236;48.058;10.632;2023-04-07T01:17:00;94691.91;;;4.77;67.38
56330;BME280;42236;48.058;10.632;2023-04-07T01:19:52;94687.34;;;4.77;67.85
56330;BME280;42236;48.058;10.632;2023-04-07T01:22:46;94692.50;;;4.74;67.88
56330;BME280;42236;48.058;10.632;2023-04-07T01:31:41;94681.34;;;4.72;68.48
56330;BME280;42236;48.058;10.632;2023-04-07T01:34:29;94675.50;;;4.69;68.19
56330;BME280;42236;48.058;10.632;2023-04-07T01:37:16;94675.00;;;4.67;68.79
56330;BME280;42236;48.058;10.632;2023-04-07T01:40:03;94675.28;;;4.66;69.01
56330;BME280;42236;48.058;10.632;2023-04-07T01:42:50;94674.22;;;4.67;69.57
56330;BME280;42236;48.058;10.632;2023-04-07T01:45:37;94667.59;;;4.64;69.36
56330;BME280;42236;48.058;10.632;2023-04-07T01:48:23;94662.25;;;4.64;69.33
56330;BME280;42236;48.058;10.632;2023-04-07T01:51:10;94656.91;;;4.64;69.76
56330;BME280;42236;48.058;10.632;2023-04-07T01:54:01;94653.13;;;4.65;69.50
56330;BME280;42236;48.058;10.632;2023-04-07T01:56:48;94656.59;;;4.66;70.37
56330;BME280;42236;48.058;10.632;2023-04-07T01:59:34;94656.00;;;4.69;70.28
56330;BME280;42236;48.058;10.632;2023-04-07T02:02:20;94653.78;;;4.71;70.12
56330;BME280;42236;48.058;10.632;2023-04-07T02:05:08;94653.50;;;4.73;70.10
56330;BME280;42236;48.058;10.632;2023-04-07T02:08:02;94649.75;;;4.74;70.51
56330;BME280;42236;48.058;10.632;2023-04-07T02:10:49;94653.50;;;4.73;70.21
56330;BME280;42236;48.058;10.632;2023-04-07T02:13:36;94648.94;;;4.73;70.62
56330;BME280;42236;48.058;10.632;2023-04-07T02:16:24;94634.50;;;4.74;70.59
56330;BME280;42236;48.058;10.632;2023-04-07T02:19:10;94641.75;;;4.74;71.46
56330;BME280;42236;48.058;10.632;2023-04-07T02:21:56;94633.72;;;4.74;72.07
56330;BME280;42236;48.058;10.632;2023-04-07T02:24:42;94633.72;;;4.74;71.86
56330;BME280;42236;48.058;10.632;2023-04-07T02:27:28;94635.59;;;4.73;72.75
56330;BME280;42236;48.058;10.632;2023-04-07T02:30:13;94631.63;;;4.70;73.05
56330;BME280;42236;48.058;10.632;2023-04-07T02:32:59;94625.81;;;4.68;73.85
56330;BME280;42236;48.058;10.632;2023-04-07T02:35:45;94624.25;;;4.67;73.60
56330;BME280;42236;48.058;10.632;2023-04-07T02:38:31;94626.41;;;4.65;74.10
56330;BME280;42236;48.058;10.632;2023-04-07T02:41:16;94616.34;;;4.62;74.03
56330;BME280;42236;48.058;10.632;2023-04-07T02:44:02;94618.53;;;4.60;74.28
56330;BME280;42236;48.058;10.632;2023-04-07T02:46:48;94616.97;;;4.59;74.59
56330;BME280;42236;48.058;10.632;2023-04-07T02:49:34;94613.00;;;4.57;76.11
56330;BME280;42236;48.058;10.632;2023-04-07T02:52:19;94608.25;;;4.54;75.86
56330;BME280;42236;48.058;10.632;2023-04-07T02:55:05;94598.97;;;4.51;75.70
56330;BME280;42236;48.058;10.632;2023-04-07T02:57:51;94602.72;;;4.50;75.78
56330;BME280;42236;48.058;10.632;2023-04-07T03:00:37;94601.13;;;4.49;76.01
56330;BME280;42236;48.058;10.632;2023-04-07T03:03:22;94591.56;;;4.48;76.05
56330;BME280;42236;48.058;10.632;2023-04-07T03:06:08;94588.69;;;4.44;77.04
56330;BME280;42236;48.058;10.632;2023-04-07T03:08:54;94587.91;;;4.44;76.22
56330;BME280;42236;48.058;10.632;2023-04-07T03:11:40;94589.63;;;4.40;76.83
56330;BME280;42236;48.058;10.632;2023-04-07T03:14:28;94584.88;;;4.37;77.33
56330;BME280;42236;48.058;10.632;2023-04-07T03:17:13;94585.66;;;4.37;77.03
56330;BME280;42236;48.058;10.632;2023-04-07T03:19:59;94574.50;;;4.35;77.82
56330;BME280;42236;48.058;10.632;2023-04-07T03:22:45;94574.50;;;4.35;77.60
56330;BME280;42236;48.058;10.632;2023-04-07T03:25:31;94566.16;;;4.37;78.56
56330;BME280;42236;48.058;10.632;2023-04-07T03:28:17;94571.50;;;4.37;79.29
56330;BME280;42236;48.058;10.632;2023-04-07T03:31:03;94575.91;;;4.33;80.27
56330;BME280;42236;48.058;10.632;2023-04-07T03:33:49;94572.91;;;4.34;78.81
56330;BME280;42236;48.058;10.632;2023-04-07T03:36:34;94564.59;;;4.36;79.01
56330;BME280;42236;48.058;10.632;2023-04-07T03:39:20;94560.81;;;4.37;77.78
56330;BME280;42236;48.058;10.632;2023-04-07T03:42:06;94566.38;;;4.40;78.14
56330;BME280;42236;48.058;10.632;2023-04-07T03:44:52;94565.59;;;4.40;78.37
56330;BME280;42236;48.058;10.632;2023-04-07T03:47:38;94555.47;;;4.37;78.70
56330;BME280;42236;48.058;10.632;2023-04-07T03:50:23;94558.47;;;4.35;78.74
56330;BME280;42236;48.058;10.632;2023-04-07T03:53:09;94557.66;;;4.35;78.68
56330;BME280;42236;48.058;10.632;2023-04-07T03:55:55;94556.09;;;4.34;78.65
56330;BME280;42236;48.058;10.632;2023-04-07T03:58:40;94555.00;;;4.35;78.69
56330;BME280;42236;48.058;10.632;2023-04-07T04:01:27;94554.53;;;4.33;78.80
56330;BME280;42236;48.058;10.632;2023-04-07T04:04:13;94556.88;;;4.34;78.73
56330;BME280;42236;48.058;10.632;2023-04-07T04:06:58;94550.75;;;4.34;78.79
56330;BME280;42236;48.058;10.632;2023-04-07T04:09:44;94552.94;;;4.32;78.11
56330;BME280;42236;48.058;10.632;2023-04-07T04:12:30;94550.25;;;4.32;78.90
56330;BME280;42236;48.058;10.632;2023-04-07T04:15:15;94544.44;;;4.30;78.81
56330;BME280;42236;48.058;10.632;2023-04-07T04:18:01;94551.66;;;4.29;80.08
56330;BME280;42236;48.058;10.632;2023-04-07T04:20:47;94546.03;;;4.31;79.68
56330;BME280;42236;48.058;10.632;2023-04-07T04:23:33;94544.94;;;4.32;78.65
56330;BME280;42236;48.058;10.632;2023-04-07T04:26:18;94539.09;;;4.30;79.00
56330;BME280;42236;48.058;10.632;2023-04-07T04:29:05;94536.63;;;4.33;78.37
56330;BME280;42236;48.058;10.632;2023-04-07T04:31:51;94534.56;;;4.30;78.38
56330;BME280;42236;48.058;10.632;2023-04-07T04:34:38;94538.50;;;4.33;77.76
56330;BME280;42236;48.058;10.632;2023-04-07T04:37:23;94533.94;;;4.33;78.64
56330;BME280;42236;48.058;10.632;2023-04-07T04:40:10;94535.34;;;4.31;78.89
56330;BME280;42236;48.058;10.632;2023-04-07T04:42:56;94539.28;;;4.33;78.43
56330;BME280;42236;48.058;10.632;2023-04-07T04:45:41;94536.91;;;4.32;78.47
56330;BME280;42236;48.058;10.632;2023-04-07T04:48:27;94540.06;;;4.34;78.42
56330;BME280;42236;48.058;10.632;2023-04-07T04:51:13;94543.34;;;4.31;78.62
56330;BME280;42236;48.058;10.632;2023-04-07T04:53:58;94535.34;;;4.31;78.54
56330;BME280;42236;48.058;10.632;2023-04-07T04:56:47;94539.09;;;4.30;78.42
56330;BME280;42236;48.058;10.632;2023-04-07T04:59:33;94529.81;;;4.27;79.33
56330;BME280;42236;48.058;10.632;2023-04-07T05:02:19;94534.38;;;4.26;79.49
56330;BME280;42236;48.058;10.632;2023-04-07T05:05:05;94533.88;;;4.24;79.23
56330;BME280;42236;48.058;10.632;2023-04-07T05:07:51;94528.03;;;4.22;79.23
56330;BME280;42236;48.058;10.632;2023-04-07T05:10:37;94527.09;;;4.18;79.32
56330;BME280;42236;48.058;10.632;2023-04-07T05:13:24;94527.66;;;4.15;80.01
56330;BME280;42236;48.058;10.632;2023-04-07T05:16:10;94527.66;;;4.15;79.58
56330;BME280;42236;48.058;10.632;2023-04-07T05:18:56;94529.28;;;4.16;79.70
56330;BME280;42236;48.058;10.632;2023-04-07T05:21:41;94524.88;;;4.20;79.48
56330;BME280;42236;48.058;10.632;2023-04-07T05:24:28;94530.13;;;4.25;78.93
56330;BME280;42236;48.058;10.632;2023-04-07T05:27:13;94521.78;;;4.27;79.12
56330;BME280;42236;48.058;10.632;2023-04-07T05:29:59;94519.31;;;4.31;79.04
56330;BME280;42236;48.058;10.632;2023-04-07T05:32:45;94525.63;;;4.35;79.07
56330;BME280;42236;48.058;10.632;2023-04-07T05:35:31;94521.09;;;4.35;78.64
56330;BME280;42236;48.058;10.632;2023-04-07T05:38:16;94509.59;;;4.35;79.01
56330;BME280;42236;48.058;10.632;2023-04-07T05:41:02;94510.56;;;4.39;78.37
56330;BME280;42236;48.058;10.632;2023-04-07T05:43:48;94512.63;;;4.42;78.35
56330;BME280;42236;48.058;10.632;2023-04-07T05:46:33;94512.53;;;4.47;78.25
56330;BME280;42236;48.058;10.632;2023-04-07T05:49:19;94511.13;;;4.49;78.41
56330;BME280;42236;48.058;10.632;2023-04-07T05:52:05;94503.78;;;4.55;77.75
56330;BME280;42236;48.058;10.632;2023-04-07T05:54:51;94504.13;;;4.62;77.96
56330;BME280;42236;48.058;10.632;2023-04-07T05:57:36;94509.84;;;4.69;77.57
56330;BME280;42236;48.058;10.632;2023-04-07T06:00:22;94510.00;;;4.73;78.19
56330;BME280;42236;48.058;10.632;2023-04-07T06:03:08;94510.66;;;4.79;77.33
56330;BME280;42236;48.058;10.632;2023-04-07T06:05:53;94506.28;;;4.83;77.08
56330;BME280;42236;48.058;10.632;2023-04-07T06:08:39;94506.13;;;4.88;76.79
56330;BME280;42236;48.058;10.632;2023-04-07T06:11:25;94505.22;;;4.92;76.33
56330;BME280;42236;48.058;10.632;2023-04-07T06:14:12;94502.72;;;4.96;76.16
56330;BME280;42236;48.058;10.632;2023-04-07T06:16:58;94503.69;;;5.00;76.24
56330;BME280;42236;48.058;10.632;2023-04-07T06:19:44;94506.84;;;5.02;75.88
56330;BME280;42236;48.058;10.632;2023-04-07T06:22:30;94500.56;;;5.07;75.92
56330;BME280;42236;48.058;10.632;2023-04-07T06:25:15;94496.47;;;5.09;75.46
56330;BME280;42236;48.058;10.632;2023-04-07T06:28:01;94511.94;;;5.12;75.41
56330;BME280;42236;48.058;10.632;2023-04-07T06:30:47;94514.28;;;5.14;75.69
56330;BME280;42236;48.058;10.632;2023-04-07T06:33:32;94509.13;;;5.18;76.08
56330;BME280;42236;48.058;10.632;2023-04-07T06:36:19;94514.94;;;5.20;75.93
56330;BME280;42236;48.058;10.632;2023-04-07T06:39:05;94511.66;;;5.23;75.68
56330;BME280;42236;48.058;10.632;2023-04-07T06:41:51;94508.81;;;5.28;75.45
56330;BME280;42236;48.058;10.632;2023-04-07T06:44:36;94509.78;;;5.32;75.47
56330;BME280;42236;48.058;10.632;2023-04-07T06:47:22;94514.53;;;5.35;74.88
56330;BME280;42236;48.058;10.632;2023-04-07T06:50:08;94505.22;;;5.41;75.04
56330;BME280;42236;48.058;10.632;2023-04-07T06:52:54;94506.19;;;5.45;74.78
56330;BME280;42236;48.058;10.632;2023-04-07T06:55:40;94503.56;;;5.54;74.53
56330;BME280;42236;48.058;10.632;2023-04-07T06:58:26;94498.22;;;5.63;74.30
56330;BME280;42236;48.058;10.632;2023-04-07T07:01:11;94488.94;;;5.69;73.60
56330;BME280;42236;48.058;10.632;2023-04-07T07:03:57;94495.88;;;5.78;73.69
56330;BME280;42236;48.058;10.632;2023-04-07T07:06:43;94496.34;;;5.89;73.28
56330;BME280;42236;48.058;10.632;2023-04-07T07:09:28;94493.09;;;6.01;73.32
56330;BME280;42236;48.058;10.632;2023-04-07T07:12:14;94491.81;;;6.16;73.23
56330;BME280;42236;48.058;10.632;2023-04-07T07:15:01;94502.25;;;6.26;72.45
56330;BME280;42236;48.058;10.632;2023-04-07T07:17:48;94503.94;;;6.39;72.47
56330;BME280;42236;48.058;10.632;2023-04-07T07:20:33;94504.25;;;6.47;72.27
56330;BME280;42236;48.058;10.632;2023-04-07T07:23:19;94511.53;;;6.55;72.25
56330;BME280;42236;48.058;10.632;2023-04-07T07:26:05;94496.06;;;6.60;71.97
56330;BME280;42236;48.058;10.632;2023-04-07T07:28:51;94491.94;;;6.63;71.91
56330;BME280;42236;48.058;10.632;2023-04-07T07:31:36;94497.13;;;6.77;71.52
56330;BME280;42236;48.058;10.632;2023-04-07T07:34:22;94494.88;;;6.88;71.83
56330;BME280;42236;48.058;10.632;2023-04-07T07:37:07;94495.00;;;7.00;71.52
56330;BME280;42236;48.058;10.632;2023-04-07T07:39:53;94500.81;;;7.11;70.65
56330;BME280;42236;48.058;10.632;2023-04-07T07:42:40;94492.09;;;7.22;70.44
56330;BME280;42236;48.058;10.632;2023-04-07T07:45:26;94491.38;;;7.34;70.17
56330;BME280;42236;48.058;10.632;2023-04-07T07:48:12;94504.13;;;7.46;69.42
56330;BME280;42236;48.058;10.632;2023-04-07T07:50:58;94493.66;;;7.53;69.02
56330;BME280;42236;48.058;10.632;2023-04-07T07:53:44;94494.69;;;7.69;68.44
56330;BME280;42236;48.058;10.632;2023-04-07T07:56:30;94485.84;;;7.90;68.43
56330;BME280;42236;48.058;10.632;2023-04-07T07:59:16;94497.72;;;8.10;68.06
56330;BME280;42236;48.058;10.632;2023-04-07T08:02:01;94486.84;;;8.27;67.25
56330;BME280;42236;48.058;10.632;2023-04-07T08:04:47;94485.94;;;8.44;66.88
56330;BME280;42236;48.058;10.632;2023-04-07T08:07:32;94479.38;;;8.54;66.61
56330;BME280;42236;48.058;10.632;2023-04-07T08:10:18;94476.84;;;8.70;66.78
56330;BME280;42236;48.058;10.632;2023-04-07T08:13:04;94471.50;;;8.82;64.45
56330;BME280;42236;48.058;10.632;2023-04-07T08:15:50;94475.50;;;8.76;64.30
56330;BME280;42236;48.058;10.632;2023-04-07T08:18:36;94478.97;;;8.76;64.22
56330;BME280;42236;48.058;10.632;2023-04-07T08:21:22;94484.03;;;8.78;63.79
56330;BME280;42236;48.058;10.632;2023-04-07T08:24:08;94479.78;;;8.77;63.66
56330;BME280;42236;48.058;10.632;2023-04-07T08:26:54;94476.06;;;8.82;63.67
56330;BME280;42236;48.058;10.632;2023-04-07T08:29:40;94484.06;;;8.90;63.11
56330;BME280;42236;48.058;10.632;2023-04-07T08:32:36;94486.66;;;8.99;62.17
56330;BME280;42236;48.058;10.632;2023-04-07T08:35:22;94481.06;;;9.04;62.04
56330;BME280;42236;48.058;10.632;2023-04-07T08:38:08;94474.91;;;9.04;61.65
56330;BME280;42236;48.058;10.632;2023-04-07T08:41:01;94484.75;;;9.00;60.19
56330;BME280;42236;48.058;10.632;2023-04-07T08:43:48;94478.03;;;9.06;60.68
56330;BME280;42236;48.058;10.632;2023-04-07T08:46:37;94474.25;;;9.19;59.69
56330;BME280;42236;48.058;10.632;2023-04-07T08:49:26;94479.41;;;9.24;59.55
56330;BME280;42236;48.058;10.632;2023-04-07T08:52:14;94478.03;;;9.18;60.14
56330;BME280;42236;48.058;10.632;2023-04-07T08:55:02;94480.16;;;9.12;59.00
56330;BME280;42236;48.058;10.632;2023-04-07T08:57:48;94475.78;;;9.08;58.64
56330;BME280;42236;48.058;10.632;2023-04-07T09:00:35;94476.47;;;9.05;58.26
56330;BME280;42236;48.058;10.632;2023-04-07T09:03:21;94485.84;;;8.98;58.14
56330;BME280;42236;48.058;10.632;2023-04-07T09:06:09;94487.25;;;9.17;57.73
56330;BME280;42236;48.058;10.632;2023-04-07T09:08:58;94487.47;;;9.36;57.57
56330;BME280;42236;48.058;10.632;2023-04-07T09:11:44;94489.16;;;9.66;57.27
56330;BME280;42236;48.058;10.632;2023-04-07T09:14:29;94482.50;;;9.88;57.37
56330;BME280;42236;48.058;10.632;2023-04-07T09:17:15;94479.50;;;9.89;56.54
56330;BME280;42236;48.058;10.632;2023-04-07T09:20:02;94483.88;;;9.81;56.14
56330;BME280;42236;48.058;10.632;2023-04-07T09:22:48;94481.97;;;9.82;54.82
56330;BME280;42236;48.058;10.632;2023-04-07T09:25:34;94479.38;;;9.98;56.64
56330;BME280;42236;48.058;10.632;2023-04-07T09:28:20;94482.38;;;10.09;56.11
56330;BME280;42236;48.058;10.632;2023-04-07T09:31:07;94484.16;;;10.04;56.28
56330;BME280;42236;48.058;10.632;2023-04-07T09:33:53;94484.06;;;10.01;55.68
56330;BME280;42236;48.058;10.632;2023-04-07T09:36:40;94488.13;;;9.95;54.93
56330;BME280;42236;48.058;10.632;2023-04-07T09:39:27;94478.56;;;9.97;55.35
56330;BME280;42236;48.058;10.632;2023-04-07T09:42:13;94479.25;;;9.94;55.73
56330;BME280;42236;48.058;10.632;2023-04-07T09:44:59;94482.97;;;9.90;55.45
56330;BME280;42236;48.058;10.632;2023-04-07T09:47:45;94472.53;;;9.76;55.41
56330;BME280;42236;48.058;10.632;2023-04-07T09:50:43;94477.34;;;9.82;55.07
56330;BME280;42236;48.058;10.632;2023-04-07T09:56:29;94478.41;;;10.18;55.76
56330;BME280;42236;48.058;10.632;2023-04-07T09:59:16;94470.91;;;10.12;55.20
56330;BME280;42236;48.058;10.632;2023-04-07T10:02:02;94470.22;;;10.55;55.19
56330;BME280;42236;48.058;10.632;2023-04-07T10:04:48;94476.00;;;10.70;54.90
56330;BME280;42236;48.058;10.632;2023-04-07T10:07:34;94473.22;;;10.82;54.78
56330;BME280;42236;48.058;10.632;2023-04-07T10:10:20;94472.91;;;10.99;54.64
56330;BME280;42236;48.058;10.632;2023-04-07T10:13:06;94474.13;;;10.86;55.11
56330;BME280;42236;48.058;10.632;2023-04-07T10:15:51;94471.94;;;10.92;55.70
56330;BME280;42236;48.058;10.632;2023-04-07T10:18:38;94479.28;;;11.07;55.40
56330;BME280;42236;48.058;10.632;2023-04-07T10:21:24;94469.28;;;11.07;55.49
56330;BME280;42236;48.058;10.632;2023-04-07T10:27:21;94477.78;;;10.78;54.92
56330;BME280;42236;48.058;10.632;2023-04-07T10:30:12;94476.88;;;10.74;54.88
56330;BME280;42236;48.058;10.632;2023-04-07T10:32:59;94474.19;;;10.89;55.62
56330;BME280;42236;48.058;10.632;2023-04-07T10:36:04;94476.91;;;10.89;55.59
56330;BME280;42236;48.058;10.632;2023-04-07T10:41:51;94480.88;;;10.80;55.91
56330;BME280;42236;48.058;10.632;2023-04-07T10:47:23;94481.78;;;10.84;55.78
56330;BME280;42236;48.058;10.632;2023-04-07T10:50:18;94477.97;;;10.85;56.39
56330;BME280;42236;48.058;10.632;2023-04-07T10:53:09;94479.78;;;10.97;55.54
56330;BME280;42236;48.058;10.632;2023-04-07T10:55:56;94477.78;;;10.94;55.63
56330;BME280;42236;48.058;10.632;2023-04-07T10:58:43;94477.81;;;11.09;55.40
56330;BME280;42236;48.058;10.632;2023-04-07T11:01:29;94478.00;;;11.17;54.93
56330;BME280;42236;48.058;10.632;2023-04-07T11:04:15;94471.63;;;11.41;54.66
56330;BME280;42236;48.058;10.632;2023-04-07T11:07:01;94470.75;;;11.37;54.89
56330;BME280;42236;48.058;10.632;2023-04-07T11:09:46;94470.16;;;11.27;54.45
56330;BME280;42236;48.058;10.632;2023-04-07T11:12:32;94473.78;;;11.35;54.26
56330;BME280;42236;48.058;10.632;2023-04-07T11:15:21;94480.41;;;11.53;53.69
56330;BME280;42236;48.058;10.632;2023-04-07T11:18:15;94476.47;;;11.67;52.95
56330;BME280;42236;48.058;10.632;2023-04-07T11:21:02;94477.63;;;11.66;53.70
56330;BME280;42236;48.058;10.632;2023-04-07T11:23:48;94469.50;;;11.66;53.54
56330;BME280;42236;48.058;10.632;2023-04-07T11:26:40;94473.25;;;11.77;52.71
56330;BME280;42236;48.058;10.632;2023-04-07T11:29:29;94462.41;;;11.93;52.44
56330;BME280;42236;48.058;10.632;2023-04-07T11:32:21;94454.50;;;11.84;51.95
56330;BME280;42236;48.058;10.632;2023-04-07T11:35:08;94468.97;;;11.92;51.97
56330;BME280;42236;48.058;10.632;2023-04-07T11:37:57;94464.50;;;12.00;50.47
56330;BME280;42236;48.058;10.632;2023-04-07T11:40:44;94469.44;;;12.13;51.37
56330;BME280;42236;48.058;10.632;2023-04-07T11:43:30;94465.88;;;12.48;51.21
56330;BME280;42236;48.058;10.632;2023-04-07T11:46:17;94471.66;;;12.47;50.71
56330;BME280;42236;48.058;10.632;2023-04-07T11:49:11;94477.47;;;12.29;49.86
56330;BME280;42236;48.058;10.632;2023-04-07T11:52:01;94473.91;;;12.06;50.18
56330;BME280;42236;48.058;10.632;2023-04-07T11:54:48;94471.41;;;11.97;51.42
56330;BME280;42236;48.058;10.632;2023-04-07T11:57:37;94482.47;;;11.76;51.81
56330;BME280;42236;48.058;10.632;2023-04-07T12:00:23;94482.63;;;11.83;51.98
56330;BME280;42236;48.058;10.632;2023-04-07T12:03:10;94482.47;;;11.92;51.31
56330;BME280;42236;48.058;10.632;2023-04-07T12:05:59;94484.75;;;11.74;51.83
56330;BME280;42236;48.058;10.632;2023-04-07T12:08:48;94478.56;;;11.73;52.49
56330;BME280;42236;48.058;10.632;2023-04-07T12:11:34;94476.22;;;11.72;52.43
56330;BME280;42236;48.058;10.632;2023-04-07T12:14:21;94478.72;;;11.81;52.43
56330;BME280;42236;48.058;10.632;2023-04-07T12:17:19;94480.75;;;11.68;52.09
56330;BME280;42236;48.058;10.632;2023-04-07T12:20:08;94478.94;;;11.72;52.71
56330;BME280;42236;48.058;10.632;2023-04-07T12:22:54;94491.19;;;11.85;52.94
56330;BME280;42236;48.058;10.632;2023-04-07T12:25:40;94488.94;;;11.87;52.97
56330;BME280;42236;48.058;10.632;2023-04-07T12:28:26;94483.19;;;11.73;52.82
56330;BME280;42236;48.058;10.632;2023-04-07T12:31:12;94486.16;;;11.68;52.63
56330;BME280;42236;48.058;10.632;2023-04-07T12:33:58;94487.53;;;11.62;52.58
56330;BME280;42236;48.058;10.632;2023-04-07T12:36:44;94485.28;;;11.64;52.44
56330;BME280;42236;48.058;10.632;2023-04-07T12:39:30;94487.28;;;11.67;52.25
56330;BME280;42236;48.058;10.632;2023-04-07T12:42:15;94488.34;;;11.46;51.29
56330;BME280;42236;48.058;10.632;2023-04-07T12:45:01;94481.47;;;11.33;53.08
56330;BME280;42236;48.058;10.632;2023-04-07T12:47:47;94485.22;;;11.13;53.96
56330;BME280;42236;48.058;10.632;2023-04-07T12:50:34;94484.50;;;11.16;54.02
56330;BME280;42236;48.058;10.632;2023-04-07T12:53:20;94484.16;;;11.33;54.23
56330;BME280;42236;48.058;10.632;2023-04-07T12:56:07;94478.94;;;11.40;54.13
56330;BME280;42236;48.058;10.632;2023-04-07T12:58:53;94472.69;;;11.36;54.41
56330;BME280;42236;48.058;10.632;2023-04-07T13:01:39;94478.84;;;11.37;54.53
56330;BME280;42236;48.058;10.632;2023-04-07T13:04:24;94471.72;;;11.44;54.50
56330;BME280;42236;48.058;10.632;2023-04-07T13:07:14;94479.81;;;11.60;54.26
56330;BME280;42236;48.058;10.632;2023-04-07T13:10:00;94480.75;;;11.68;54.21
56330;BME280;42236;48.058;10.632;2023-04-07T13:12:47;94482.84;;;11.59;54.42
56330;BME280;42236;48.058;10.632;2023-04-07T13:15:33;94479.81;;;11.60;54.29
56330;BME280;42236;48.058;10.632;2023-04-07T13:18:18;94478.75;;;11.65;54.15
56330;BME280;42236;48.058;10.632;2023-04-07T13:21:04;94483.56;;;11.56;54.38
56330;BME280;42236;48.058;10.632;2023-04-07T13:23:50;94490.88;;;11.55;54.44
56330;BME280;42236;48.058;10.632;2023-04-07T13:26:37;94484.50;;;11.47;54.48
56330;BME280;42236;48.058;10.632;2023-04-07T13:29:22;94472.16;;;11.46;54.57
56330;BME280;42236;48.058;10.632;2023-04-07T13:32:09;94482.84;;;11.59;54.20
56330;BME280;42236;48.058;10.632;2023-04-07T13:34:57;94481.97;;;11.70;53.97
56330;BME280;42236;48.058;10.632;2023-04-07T13:37:44;94486.16;;;11.68;53.93
56330;BME280;42236;48.058;10.632;2023-04-07T13:40:30;94482.31;;;11.69;54.00
56330;BME280;42236;48.058;10.632;2023-04-07T13:43:15;94477.44;;;11.59;53.98
56330;BME280;42236;48.058;10.632;2023-04-07T13:46:02;94477.78;;;11.57;54.09
56330;BME280;42236;48.058;10.632;2023-04-07T13:48:48;94478.88;;;11.52;54.23
56330;BME280;42236;48.058;10.632;2023-04-07T13:51:35;94475.00;;;11.53;54.38
56330;BME280;42236;48.058;10.632;2023-04-07T13:54:21;94482.25;;;11.49;54.51
56330;BME280;42236;48.058;10.632;2023-04-07T13:57:07;94483.38;;;11.48;54.83
56330;BME280;42236;48.058;10.632;2023-04-07T13:59:52;94485.47;;;11.55;54.72
56330;BME280;42236;48.058;10.632;2023-04-07T14:02:38;94482.25;;;11.65;54.42
56330;BME280;42236;48.058;10.632;2023-04-07T14:05:24;94483.91;;;11.70;54.48
56330;BME280;42236;48.058;10.632;2023-04-07T14:11:47;94494.41;;;11.91;54.04
56330;BME280;42236;48.058;10.632;2023-04-07T14:14:33;94486.06;;;11.80;53.99
56330;BME280;42236;48.058;10.632;2023-04-07T14:17:21;94487.38;;;11.70;54.22
56330;BME280;42236;48.058;10.632;2023-04-07T14:20:08;94481.19;;;11.70;54.44
56330;BME280;42236;48.058;10.632;2023-04-07T14:22:53;94489.38;;;11.73;54.40
56330;BME280;42236;48.058;10.632;2023-04-07T14:25:39;94488.41;;;11.66;54.11
56330;BME280;42236;48.058;10.632;2023-04-07T14:28:26;94481.28;;;11.58;54.13
56330;BME280;42236;48.058;10.632;2023-04-07T14:31:14;94481.97;;;11.54;54.46
56330;BME280;42236;48.058;10.632;2023-04-07T14:34:00;94481.81;;;11.47;54.60
56330;BME280;42236;48.058;10.632;2023-04-07T14:36:56;94489.50;;;11.45;54.58
56330;BME280;42236;48.058;10.632;2023-04-07T14:39:43;94485.22;;;11.44;54.90
56330;BME280;42236;48.058;10.632;2023-04-07T14:42:29;94487.91;;;11.44;54.55
56330;BME280;42236;48.058;10.632;2023-04-07T14:45:15;94492.19;;;11.45;54.41
56330;BME280;42236;48.058;10.632;2023-04-07T14:48:02;94494.72;;;11.38;54.63
56330;BME280;42236;48.058;10.632;2023-04-07T14:50:47;94486.28;;;11.24;54.69
56330;BME280;42236;48.058;10.632;2023-04-07T14:53:33;94493.81;;;11.18;54.78
56330;BME280;42236;48.058;10.632;2023-04-07T14:56:19;94492.25;;;11.01;55.15
56330;BME280;42236;48.058;10.632;2023-04-07T14:59:05;94481.56;;;11.05;55.14
56330;BME280;42236;48.058;10.632;2023-04-07T15:01:51;94488.06;;;11.04;55.22
56330;BME280;42236;48.058;10.632;2023-04-07T15:04:37;94489.22;;;11.03;55.50